createdAt,value
2019-03-03T00:00:56.563Z,99.10
2019-03-03T00:03:30.280Z,99.00
2019-03-03T00:06:03.208Z,99.30
2019-03-03T00:08:36.140Z,99.20
2019-03-03T00:11:09.339Z,98.90
2019-03-03T00:13:42.443Z,98.20
2019-03-03T00:16:15.480Z,98.20
2019-03-03T00:18:48.560Z,98.30
2019-03-03T00:21:21.702Z,98.50
2019-03-03T00:23:54.542Z,98.50
2019-03-03T00:26:27.621Z,98.20
2019-03-03T00:29:00.769Z,98.30
2019-03-03T00:31:34.441Z,98.30
2019-03-03T00:34:07.900Z,98.20
2019-03-03T00:36:54.820Z,98.20
2019-03-03T00:39:41.300Z,99.00
2019-03-03T00:42:18.660Z,99.50
2019-03-03T00:45:05.363Z,99.00
2019-03-03T00:47:42.862Z,98.30
2019-03-03T00:50:17.419Z,98.70
2019-03-03T00:53:00.900Z,99.10
2019-03-03T00:55:48.801Z,99.00
2019-03-03T00:58:23.260Z,99.10
2019-03-03T01:00:57.881Z,98.80
2019-03-03T01:03:35.241Z,99.60
2019-03-03T01:06:12.381Z,99.40
2019-03-03T01:09:02.859Z,99.10
2019-03-03T01:11:40.091Z,99.40
2019-03-03T01:14:17.182Z,99.30
2019-03-03T01:16:51.804Z,99.20
2019-03-03T01:19:38.281Z,99.90
2019-03-03T01:22:23.393Z,99.90
2019-03-03T01:24:59.060Z,99.90
2019-03-03T01:27:33.841Z,99.90
2019-03-03T01:30:06.758Z,99.90
2019-03-03T01:32:39.823Z,99.70
2019-03-03T01:35:12.720Z,99.30
2019-03-03T01:37:45.720Z,99.90
2019-03-03T01:40:18.862Z,99.90
2019-03-03T01:42:52.020Z,99.80
2019-03-03T01:45:25.160Z,99.90
2019-03-03T01:47:58.121Z,99.90
2019-03-03T01:50:30.940Z,99.70
2019-03-03T01:53:03.820Z,99.70
2019-03-03T01:55:37.501Z,99.10
2019-03-03T01:58:10.840Z,99.10
2019-03-03T02:00:45.000Z,99.60
2019-03-03T02:03:18.221Z,99.00
2019-03-03T02:05:51.119Z,98.90
2019-03-03T02:08:25.188Z,98.50
2019-03-03T02:10:58.079Z,98.30
2019-03-03T02:13:31.221Z,98.40
2019-03-03T02:16:04.860Z,98.50
2019-03-03T02:18:37.881Z,98.30
2019-03-03T02:21:10.741Z,98.50
2019-03-03T02:23:44.061Z,98.30
2019-03-03T02:26:17.025Z,99.10
2019-03-03T02:28:50.481Z,98.80
2019-03-03T02:31:23.858Z,99.20
2019-03-03T02:33:56.841Z,98.80
2019-03-03T02:36:30.121Z,98.90
2019-03-03T02:39:03.238Z,98.40
2019-03-03T02:41:36.089Z,98.50
2019-03-03T02:44:09.145Z,99.20
2019-03-03T02:46:42.385Z,98.90
2019-03-03T02:49:15.545Z,99.90
2019-03-03T02:51:48.403Z,99.60
2019-03-03T02:54:21.583Z,99.00
2019-03-03T02:56:54.642Z,98.70
2019-03-03T02:59:27.743Z,98.90
2019-03-03T03:02:01.641Z,98.90
2019-03-03T03:04:34.562Z,98.40
2019-03-03T03:07:09.102Z,99.50
2019-03-03T03:09:43.531Z,99.00
2019-03-03T03:12:23.882Z,99.90
2019-03-03T03:15:04.471Z,99.90
2019-03-03T03:17:45.022Z,99.90
2019-03-03T03:20:19.562Z,99.90
2019-03-03T03:22:59.721Z,99.90
2019-03-03T03:25:43.242Z,99.90
2019-03-03T03:28:20.661Z,99.90
2019-03-03T03:30:55.401Z,99.40
2019-03-03T03:33:36.242Z,98.40
2019-03-03T03:36:10.809Z,98.10
2019-03-03T03:38:43.424Z,96.90
2019-03-03T03:41:18.065Z,96.60
2019-03-03T03:43:54.023Z,96.50
2019-03-03T03:46:29.462Z,96.40
2019-03-03T03:49:19.082Z,96.60
2019-03-03T03:51:55.273Z,97.40
2019-03-03T03:54:33.500Z,97.40
2019-03-03T03:57:08.362Z,97.60
2019-03-03T03:59:49.209Z,98.90
2019-03-03T04:02:21.822Z,99.00
2019-03-03T04:05:12.322Z,98.40
2019-03-03T04:07:53.042Z,98.70
2019-03-03T04:10:46.184Z,99.30
2019-03-03T04:13:20.969Z,98.80
2019-03-03T04:16:13.762Z,99.20
2019-03-03T04:19:00.506Z,99.30
2019-03-03T04:21:51.160Z,99.10
2019-03-03T04:24:31.505Z,98.40
2019-03-03T04:27:14.881Z,98.50
2019-03-03T04:30:01.513Z,98.70
2019-03-03T04:32:39.320Z,98.10
2019-03-03T04:35:13.982Z,97.80
2019-03-03T04:37:46.701Z,96.90
2019-03-03T04:40:21.465Z,96.20
2019-03-03T04:42:58.839Z,96.60
2019-03-03T04:45:33.221Z,96.20
2019-03-03T04:48:18.061Z,96.00
2019-03-03T04:51:09.079Z,96.40
2019-03-03T04:53:41.840Z,95.90
2019-03-03T04:56:31.479Z,95.80
2019-03-03T04:59:18.163Z,97.20
2019-03-03T05:02:08.561Z,95.50
2019-03-03T05:04:48.960Z,96.10
2019-03-03T05:07:29.521Z,94.60
2019-03-03T05:10:10.301Z,94.40
2019-03-03T05:12:44.762Z,93.30
2019-03-03T05:15:20.562Z,93.50
2019-03-03T05:18:07.360Z,93.80
2019-03-03T05:20:51.339Z,93.80
2019-03-03T05:23:24.562Z,94.40
2019-03-03T05:25:57.761Z,94.40
2019-03-03T05:28:31.148Z,94.20
2019-03-03T05:31:04.049Z,94.40
2019-03-03T05:33:36.929Z,93.10
2019-03-03T05:36:09.846Z,93.30
2019-03-03T05:38:42.920Z,91.60
2019-03-03T05:41:15.757Z,92.70
2019-03-03T05:43:48.760Z,92.50
2019-03-03T05:46:21.900Z,93.30
2019-03-03T05:48:55.120Z,93.70
2019-03-03T05:51:27.980Z,93.10
2019-03-03T05:54:01.441Z,93.10
2019-03-03T05:56:34.741Z,92.90
2019-03-03T05:59:07.840Z,92.70
2019-03-03T06:01:41.301Z,93.40
2019-03-03T06:04:14.421Z,93.70
2019-03-03T06:06:47.280Z,93.60
2019-03-03T06:09:20.381Z,93.50
2019-03-03T06:11:53.371Z,92.60
2019-03-03T06:14:26.319Z,92.90
2019-03-03T06:16:59.281Z,92.90
2019-03-03T06:19:32.261Z,92.10
2019-03-03T06:22:05.161Z,93.80
2019-03-03T06:24:38.126Z,93.10
2019-03-03T06:27:11.261Z,93.20
2019-03-03T06:29:44.301Z,93.00
2019-03-03T06:32:17.161Z,92.80
2019-03-03T06:34:50.641Z,92.70
2019-03-03T06:37:23.660Z,92.20
2019-03-03T06:39:56.674Z,92.40
2019-03-03T06:42:29.881Z,92.90
2019-03-03T06:45:02.640Z,92.70
2019-03-03T06:47:35.481Z,92.60
2019-03-03T06:50:08.321Z,92.90
2019-03-03T06:52:41.180Z,92.80
2019-03-03T06:55:14.584Z,92.60
2019-03-03T06:57:48.520Z,92.40
2019-03-03T07:00:21.542Z,93.10
2019-03-03T07:02:54.460Z,93.00
2019-03-03T07:05:27.800Z,92.80
2019-03-03T07:08:03.374Z,92.30
2019-03-03T07:10:36.342Z,91.90
2019-03-03T07:13:09.351Z,92.10
2019-03-03T07:15:43.503Z,92.70
2019-03-03T07:18:16.361Z,92.50
2019-03-03T07:20:49.824Z,92.20
2019-03-03T07:23:23.282Z,92.00
2019-03-03T07:25:56.140Z,92.20
2019-03-03T07:28:29.041Z,91.80
2019-03-03T07:31:01.940Z,91.60
2019-03-03T07:33:34.801Z,91.20
2019-03-03T07:36:07.981Z,91.50
2019-03-03T07:38:40.840Z,91.60
2019-03-03T07:41:14.000Z,91.50
2019-03-03T07:43:47.120Z,91.00
2019-03-03T07:46:20.253Z,90.60
2019-03-03T07:48:53.303Z,91.20
2019-03-03T07:51:26.423Z,90.70
2019-03-03T07:53:59.331Z,91.00
2019-03-03T07:56:32.537Z,90.80
2019-03-03T07:59:05.571Z,90.90
2019-03-03T08:01:38.065Z,89.20
2019-03-03T08:04:11.121Z,86.80
2019-03-03T08:06:44.341Z,88.90
2019-03-03T08:09:17.420Z,88.70
2019-03-03T08:11:51.021Z,88.90
2019-03-03T08:14:23.943Z,86.00
2019-03-03T08:16:57.098Z,87.50
2019-03-03T08:19:30.019Z,88.90
2019-03-03T08:22:02.925Z,89.80
2019-03-03T08:24:35.883Z,87.70
2019-03-03T08:27:08.891Z,88.50
2019-03-03T08:29:41.983Z,84.80
2019-03-03T08:32:15.163Z,83.60
2019-03-03T08:34:48.103Z,84.00
2019-03-03T08:37:21.121Z,80.90
2019-03-03T08:39:54.184Z,84.40
2019-03-03T08:42:34.761Z,78.10
2019-03-03T08:48:41.266Z,83.50
2019-03-03T08:51:19.060Z,75.10
2019-03-03T08:54:09.880Z,77.50
2019-03-03T08:57:00.917Z,81.20
2019-03-03T08:59:53.579Z,80.90
2019-03-03T09:02:28.081Z,83.00
2019-03-03T09:05:11.603Z,80.60
2019-03-03T09:07:46.163Z,78.40
2019-03-03T09:10:29.683Z,75.20
2019-03-03T09:13:09.800Z,73.60
2019-03-03T09:15:44.307Z,71.80
2019-03-03T09:18:16.965Z,63.00
2019-03-03T09:20:52.139Z,69.50
2019-03-03T09:23:29.068Z,62.70
2019-03-03T09:26:03.414Z,62.20
2019-03-03T09:28:41.041Z,63.90
2019-03-03T09:31:16.662Z,62.40
2019-03-03T09:33:52.229Z,65.20
2019-03-03T09:36:29.761Z,65.90
2019-03-03T09:39:13.161Z,68.00
2019-03-03T09:42:03.487Z,63.40
2019-03-03T09:44:47.444Z,61.90
2019-03-03T09:47:29.182Z,60.70
2019-03-03T09:50:19.819Z,60.40
2019-03-03T09:53:07.828Z,61.00
2019-03-03T09:56:00.168Z,60.70
2019-03-03T09:58:49.900Z,61.00
2019-03-03T10:01:30.021Z,60.50
2019-03-03T10:04:20.704Z,62.10
2019-03-03T10:06:58.001Z,60.20
2019-03-03T10:09:30.641Z,60.30
2019-03-03T10:12:07.962Z,57.40
2019-03-03T10:14:42.361Z,59.00
2019-03-03T10:17:22.900Z,56.00
2019-03-03T10:20:00.548Z,56.80
2019-03-03T10:22:51.340Z,55.90
2019-03-03T10:25:28.840Z,55.60
2019-03-03T10:28:06.369Z,54.30
2019-03-03T10:30:56.062Z,54.60
2019-03-03T10:33:33.124Z,55.80
2019-03-03T10:36:23.961Z,52.80
2019-03-03T10:39:10.600Z,52.10
2019-03-03T10:42:00.534Z,51.20
2019-03-03T10:44:34.959Z,52.80
2019-03-03T10:47:10.009Z,51.20
2019-03-03T10:49:44.739Z,54.20
2019-03-03T10:52:19.320Z,50.00
2019-03-03T10:54:56.689Z,53.00
2019-03-03T10:57:46.059Z,51.80
2019-03-03T11:00:30.601Z,52.20
2019-03-03T11:03:03.179Z,53.00
2019-03-03T11:05:36.019Z,55.10
2019-03-03T11:08:10.621Z,53.90
2019-03-03T11:10:43.099Z,51.90
2019-03-03T11:13:19.019Z,53.60
2019-03-03T11:15:59.541Z,50.40
2019-03-03T11:18:55.619Z,51.30
2019-03-03T11:21:22.640Z,54.10
2019-03-03T11:24:05.881Z,53.90
2019-03-03T11:26:52.140Z,55.10
2019-03-03T11:29:29.381Z,54.60
2019-03-03T11:32:06.940Z,55.10
2019-03-03T11:34:41.360Z,55.50
2019-03-03T11:37:21.808Z,53.50
2019-03-03T11:39:59.201Z,52.20
2019-03-03T11:42:33.620Z,52.60
2019-03-03T11:45:23.541Z,51.60
2019-03-03T11:48:04.613Z,54.20
2019-03-03T11:50:51.719Z,55.00
2019-03-03T11:53:31.907Z,53.80
2019-03-03T11:56:24.701Z,54.50
2019-03-03T11:59:05.702Z,52.70
2019-03-03T12:01:43.102Z,53.40
2019-03-03T12:04:17.679Z,52.70
2019-03-03T12:07:04.000Z,51.80
2019-03-03T12:09:41.802Z,53.00
2019-03-03T12:12:32.320Z,55.00
2019-03-03T12:15:09.683Z,55.00
2019-03-03T12:18:00.361Z,57.30
2019-03-03T12:20:40.984Z,58.70
2019-03-03T12:23:21.643Z,57.30
2019-03-03T12:26:02.763Z,57.70
2019-03-03T12:28:42.802Z,60.00
2019-03-03T12:31:15.320Z,59.90
2019-03-03T12:33:52.724Z,60.30
2019-03-03T12:36:27.166Z,62.00
2019-03-03T12:39:07.364Z,62.80
2019-03-03T12:41:41.903Z,62.20
2019-03-03T12:44:19.200Z,61.20
2019-03-03T12:46:53.819Z,63.10
2019-03-03T12:49:44.268Z,62.80
2019-03-03T12:52:24.401Z,64.90
2019-03-03T12:55:17.121Z,64.70
2019-03-03T12:57:54.480Z,65.10
2019-03-03T13:00:35.680Z,65.40
2019-03-03T13:03:26.520Z,65.30
2019-03-03T13:06:01.181Z,62.90
2019-03-03T13:08:36.808Z,63.80
2019-03-03T13:11:27.660Z,62.00
2019-03-03T13:14:12.359Z,58.40
2019-03-03T13:16:50.045Z,58.10
2019-03-03T13:19:26.122Z,55.10
2019-03-03T13:22:09.892Z,55.30
2019-03-03T13:25:01.657Z,52.50
2019-03-03T13:27:34.419Z,48.20
2019-03-03T13:30:25.700Z,52.10
2019-03-03T13:33:00.550Z,49.60
2019-03-03T13:35:47.168Z,52.20
2019-03-03T13:38:24.385Z,46.40
2019-03-03T13:40:59.685Z,50.10
2019-03-03T13:43:34.327Z,51.50
2019-03-03T13:46:07.164Z,52.70
2019-03-03T13:48:39.986Z,54.10
2019-03-03T13:51:12.820Z,51.80
2019-03-03T13:53:45.826Z,53.50
2019-03-03T13:56:18.641Z,54.30
2019-03-03T13:58:51.403Z,56.10
2019-03-03T14:01:24.783Z,51.60
2019-03-03T14:03:57.720Z,50.70
2019-03-03T14:06:30.548Z,51.40
2019-03-03T14:09:04.980Z,52.40
2019-03-03T14:11:38.561Z,54.60
2019-03-03T14:14:11.740Z,49.50
2019-03-03T14:16:45.120Z,50.90
2019-03-03T14:19:18.101Z,49.70
2019-03-03T14:21:51.080Z,50.60
2019-03-03T14:24:24.200Z,51.00
2019-03-03T14:26:57.439Z,51.10
2019-03-03T14:29:30.701Z,50.90
2019-03-03T14:32:03.563Z,50.70
2019-03-03T14:34:36.580Z,53.00
2019-03-03T14:37:09.621Z,54.20
2019-03-03T14:39:43.400Z,54.80
2019-03-03T14:42:17.001Z,50.10
2019-03-03T14:44:49.801Z,51.50
2019-03-03T14:47:22.860Z,54.60
2019-03-03T14:49:55.709Z,53.60
2019-03-03T14:52:29.160Z,55.00
2019-03-03T14:55:02.018Z,53.30
2019-03-03T14:57:35.381Z,54.40
2019-03-03T15:00:09.960Z,55.80
2019-03-03T15:02:43.419Z,56.30
2019-03-03T15:05:16.561Z,53.00
2019-03-03T15:07:49.742Z,55.50
2019-03-03T15:10:23.081Z,55.00
2019-03-03T15:12:56.023Z,56.20
2019-03-03T15:15:29.120Z,57.00
2019-03-03T15:18:03.166Z,57.80
2019-03-03T15:20:36.180Z,56.80
2019-03-03T15:23:09.061Z,57.50
2019-03-03T15:25:42.083Z,58.10
2019-03-03T15:28:15.321Z,58.90
2019-03-03T15:30:48.341Z,58.40
2019-03-03T15:33:21.443Z,57.80
2019-03-03T15:35:54.699Z,59.30
2019-03-03T15:38:28.420Z,56.90
2019-03-03T15:41:01.600Z,57.30
2019-03-03T15:43:34.521Z,57.00
2019-03-03T15:46:07.660Z,56.20
2019-03-03T15:48:40.640Z,56.00
2019-03-03T15:51:14.140Z,54.80
2019-03-03T15:53:46.900Z,55.00
2019-03-03T15:56:20.152Z,55.90
2019-03-03T15:58:55.818Z,55.10
2019-03-03T18:23:02.786Z,71.00
2019-03-03T18:25:35.584Z,71.10
2019-03-03T18:28:08.539Z,71.10
2019-03-03T18:30:41.440Z,70.70
2019-03-03T18:33:14.680Z,67.90
2019-03-03T18:35:47.942Z,68.70
2019-03-03T18:38:20.960Z,69.20
2019-03-03T18:40:54.400Z,68.50
2019-03-03T18:43:27.242Z,68.30
2019-03-03T18:46:00.102Z,70.70
2019-03-03T18:48:33.500Z,69.50
2019-03-03T18:51:06.541Z,69.60
2019-03-03T18:53:39.432Z,70.30
2019-03-03T18:56:12.285Z,70.00
2019-03-03T18:58:46.263Z,70.10
2019-03-03T19:01:19.201Z,70.00
2019-03-03T19:03:52.140Z,70.50
2019-03-03T19:06:25.021Z,70.30
2019-03-03T19:08:58.141Z,68.30
2019-03-03T19:11:31.380Z,68.60
2019-03-03T19:14:04.200Z,69.00
2019-03-03T19:16:37.001Z,68.80
2019-03-03T19:19:10.122Z,67.80
2019-03-03T19:21:43.221Z,67.70
2019-03-03T19:24:16.120Z,67.30
2019-03-03T19:26:49.240Z,68.00
2019-03-03T19:29:22.340Z,68.10
2019-03-03T19:31:55.202Z,67.70
2019-03-03T19:34:28.261Z,68.40
2019-03-03T19:37:01.161Z,68.20
2019-03-03T19:39:34.201Z,68.60
2019-03-03T19:42:07.480Z,67.50
2019-03-03T19:44:41.181Z,68.50
2019-03-03T19:47:14.121Z,66.60
2019-03-03T19:49:47.101Z,67.40
2019-03-03T19:52:20.102Z,67.50
2019-03-03T19:54:53.100Z,65.80
2019-03-03T19:57:27.060Z,66.00
2019-03-03T20:00:00.742Z,66.40
2019-03-03T20:02:34.001Z,68.10
2019-03-03T20:05:06.862Z,66.40
2019-03-03T20:07:40.280Z,65.00
2019-03-03T20:10:13.161Z,65.60
2019-03-03T20:12:46.101Z,66.10
2019-03-03T20:15:19.121Z,65.90
2019-03-03T20:17:51.961Z,66.70
2019-03-03T20:20:24.901Z,66.60
2019-03-03T20:22:58.063Z,66.60
2019-03-03T20:25:30.911Z,66.90
2019-03-03T20:28:03.744Z,65.50
2019-03-03T20:30:37.265Z,65.20
2019-03-03T20:33:10.446Z,66.40
2019-03-03T20:35:43.341Z,66.00
2019-03-03T20:38:16.243Z,67.40
2019-03-03T20:40:49.907Z,66.70
2019-03-03T20:43:23.147Z,68.70
2019-03-03T20:45:56.081Z,67.60
2019-03-03T20:48:29.003Z,67.20
2019-03-03T20:51:01.916Z,68.60
2019-03-03T20:53:34.883Z,65.30
2019-03-03T20:56:07.961Z,64.50
2019-03-03T20:58:40.879Z,64.50
2019-03-03T21:01:14.043Z,64.50
2019-03-03T21:03:46.903Z,64.80
2019-03-03T21:06:20.123Z,65.10
2019-03-03T21:08:53.123Z,65.60
2019-03-03T21:11:26.404Z,66.60
2019-03-03T21:14:00.184Z,66.10
2019-03-03T21:16:33.223Z,66.40
2019-03-03T21:19:07.446Z,66.50
2019-03-03T21:21:40.860Z,66.90
2019-03-03T21:24:13.787Z,67.60
2019-03-03T21:26:46.790Z,68.40
2019-03-03T21:29:19.662Z,69.00
2019-03-03T21:31:52.641Z,69.50
2019-03-03T21:34:25.519Z,66.40
2019-03-03T21:36:58.587Z,65.80
2019-03-03T21:39:31.499Z,64.10
2019-03-03T21:42:04.399Z,61.00
2019-03-03T21:44:37.203Z,64.70
2019-03-03T21:47:10.243Z,66.30
2019-03-03T21:49:44.723Z,66.90
2019-03-03T21:52:17.544Z,66.60
2019-03-03T21:54:50.704Z,66.10
2019-03-03T21:57:23.490Z,65.50
2019-03-03T21:59:56.443Z,63.60
2019-03-03T22:02:30.023Z,63.40
2019-03-03T22:05:02.795Z,64.50
2019-03-03T22:07:36.109Z,64.70
2019-03-03T22:10:09.410Z,64.00
2019-03-03T22:12:42.485Z,63.80
2019-03-03T22:15:15.282Z,64.50
2019-03-03T22:17:48.202Z,64.60
2019-03-03T22:20:21.184Z,64.70
2019-03-03T22:22:54.329Z,65.30
2019-03-03T22:25:27.279Z,65.30
2019-03-03T22:28:00.284Z,65.30
2019-03-03T22:30:33.560Z,63.90
2019-03-03T22:33:06.560Z,62.90
2019-03-03T22:35:39.562Z,62.90
2019-03-03T22:38:12.903Z,63.20
2019-03-03T22:40:46.723Z,64.50
2019-03-03T22:43:19.701Z,64.50
2019-03-03T22:45:52.621Z,64.90
2019-03-03T22:48:26.201Z,63.40
2019-03-03T22:50:59.081Z,64.60
2019-03-03T22:53:32.220Z,62.50
2019-03-03T22:56:05.221Z,64.20
2019-03-03T22:58:38.201Z,65.70
2019-03-03T23:01:11.078Z,66.60
2019-03-03T23:03:44.440Z,67.00
2019-03-03T23:06:17.606Z,66.10
2019-03-03T23:08:50.654Z,65.80
2019-03-03T23:11:23.521Z,66.70
2019-03-03T23:13:56.501Z,67.30
2019-03-03T23:16:29.519Z,67.60
2019-03-03T23:19:02.816Z,67.60
2019-03-03T23:21:36.281Z,67.90
2019-03-03T23:24:09.200Z,67.00
2019-03-03T23:26:42.304Z,67.00
2019-03-03T23:29:15.340Z,67.40
2019-03-03T23:31:48.363Z,68.00
2019-03-03T23:34:21.502Z,67.90
2019-03-03T23:36:54.920Z,66.60
2019-03-03T23:39:30.881Z,66.50
2019-03-03T23:42:03.862Z,65.30
2019-03-03T23:44:36.901Z,65.70
2019-03-03T23:47:10.401Z,64.70
2019-03-03T23:49:44.362Z,65.50
2019-03-03T23:52:17.149Z,66.10
2019-03-03T23:54:50.561Z,65.80
2019-03-03T23:57:23.565Z,66.70
2019-03-03T23:59:56.942Z,66.70
